Terminal Aerodrome Forecast
Issued by NWS

Home | Current Version | Previous Version | Text Only | Print | Product List | Glossary On
Versions: 1 2 3 4 5 6 7 8 9 10 11 12 13 14 15 16 17 18 19 20 21 22 23 24 25 26 27 28 29
396
FTUS43 KAPX 231552 AAB
TAFMBL
TAF AMD
KMBL 231552Z 2316/2412 34013G19KT P6SM OVC009
     FM231800 36009KT P6SM OVC015
     FM232100 02008KT P6SM BKN020
     FM240000 04007KT P6SM OVC100
     FM240300 05006KT P6SM OVC080
     FM240600 05008KT 4SM -SNRAPL OVC020
     FM240900 06009G17KT 4SM -RA OVC015=

USA.gov is the U.S. government's official web portal to all federal, state and local government web resources and services.